メインページ
METAR-TAF:

METAR-TAF

空港 :

Sullivan County International Airport

Monticello, ニューヨーク, アメリカ合衆国

緯度: 41-42N, 経度: 074-48W, 海抜: 428m

現時点の気象観測

当レポートは32分前の15:56(UTC)に作成
西/北西の風 11kt、最大16ktの突風を伴う
気温 14°C
湿度 36%
気圧 1013 hPa
視程: 16.1km
高度9000ftの雲はほとんどない

METAR: KMSV 071556Z AUTO 29011G16KT 10SM FEW090 14/M01 A2992 RMK AO2 SLP134 T01391011

時間: 12:28 (16:28 UTC)


TAF: 見つかりません

4,000以上の空港の気象観測と天気予報(METAR報とTAF報)

利用可能な観測所は地図上に黄色い丸と赤い丸で示す。

丸の上にカーソルを重ねると観測所名を参照できる。

次にクリックすると気象観測と天気予報を参照できる。

マップの切り替え:黒色「×」印の緑ボタンをクリックして拡大、「-」印の緑ボタンをクリックして縮小、緑色の三角印をクリックして隣りの地図に切り替え


METAR-TAF: